Corsicana, TX

11:57 PM CDT on May 27, 2015 (GMT -0500)
Campbell-Corsicana Municipal | | Change Station
CLOSE
Current Station
Airport
Location: Corsicana,
Elevation: 443 ft
Nearby Weather Stations

Elev 443 ft 32.03 °N, 96.40 °W | Updated 1 hour ago

Partly Cloudy
Partly Cloudy
77 °F
Feels Like 77 °F
N
7
Wind Variable Wind from SE

Today
High -- | Low -- °F
--% Chance of Precip.
Yesterday
High -- | Low -- °F
Precip. -- in
6:22 AM 8:24 PM
Waxing Gibbous, 73% visible
Pressure 30.06 in
Visibility 10.0 miles
Clouds Scattered Clouds 7500 ft
Dew Point 73 °F
Humidity 88%
Rainfall 1.24 in
Snow Depth Not available.
UV 0 out of 12
Pollen 5.30 out of 12
Air Quality Not available.
Flu Activity Sporadic
METAR KCRS 280353Z AUTO 13006KT 10SM SCT075 25/23 A3007 RMK AO2 SLP177 T02500228

More Conditions Fewer Conditions

Pressure 30.06 in
Visibility 10.0 miles
Clouds Scattered Clouds 7500 ft
Dew Point 73 °F
Humidity 88%
Rainfall 1.24 in
Snow Depth Not available.
UV 0 out of 12
Pollen 5.30 out of 12
Air Quality Not available.
Flu Activity Sporadic
METAR KCRS 280353Z AUTO 13006KT 10SM SCT075 25/23 A3007 RMK AO2 SLP177 T02500228

More Conditions Fewer Conditions

10-Day Weather Forecast

Almanac

Astronomy

May. 27, 2015 Rise Set
Actual Time
Civil Twilight
Nautical Twilight
Astronomical Twilight
Moon
Length of Visible Light
Length of Day
Tomorrow will be .
, % of the Moon is Illuminated

Today's Extremes

State Highs State Lows

Community

WunderPhotos

Upload Photos

1,824,921 photos uploaded!

WunderBlogs® & News

Nearby

Air Quality

  Air Quality AQ Index Pollutant
Not available.

Snow Depth

Station Depth Elevation

Earthquake Activity

City Distance Mag. Time & Date
Minimum magnitude displayed is 2.5.

Coastal Water Temperatures

Place Temperature

Stations

Nearby Weather Stations

Station Location Temp. Windchill Dew Point Humidity Wind Precip. Elev Updated Type